sensor_id;sensor_type;location;lat;lon;timestamp;P1;durP1;ratioP1;P2;durP2;ratioP2
31126;SDS011;17775;57.948;12.514;2024-03-02T06:43:29;16.38;;;8.68;;
31126;SDS011;17775;57.948;12.514;2024-03-02T06:45:55;16.38;;;8.65;;
31126;SDS011;17775;57.948;12.514;2024-03-02T06:48:23;13.85;;;7.45;;
31126;SDS011;17775;57.948;12.514;2024-03-02T06:50:50;16.15;;;8.73;;
31126;SDS011;17775;57.948;12.514;2024-03-02T06:53:18;14.30;;;8.18;;
31126;SDS011;17775;57.948;12.514;2024-03-02T06:55:46;25.25;;;12.95;;
31126;SDS011;17775;57.948;12.514;2024-03-02T06:58:13;30.38;;;15.02;;
31126;SDS011;17775;57.948;12.514;2024-03-02T07:00:41;26.83;;;13.18;;
31126;SDS011;17775;57.948;12.514;2024-03-02T07:03:08;20.02;;;10.57;;
31126;SDS011;17775;57.948;12.514;2024-03-02T07:05:34;18.83;;;10.70;;
31126;SDS011;17775;57.948;12.514;2024-03-02T07:08:01;21.42;;;11.25;;
31126;SDS011;17775;57.948;12.514;2024-03-02T07:10:28;34.78;;;16.02;;
31126;SDS011;17775;57.948;12.514;2024-03-02T07:12:55;26.90;;;14.30;;
31126;SDS011;17775;57.948;12.514;2024-03-02T07:15:21;28.58;;;14.30;;
31126;SDS011;17775;57.948;12.514;2024-03-02T07:18:05;24.85;;;11.88;;
31126;SDS011;17775;57.948;12.514;2024-03-02T07:20:31;20.67;;;11.27;;
31126;SDS011;17775;57.948;12.514;2024-03-02T07:22:58;18.42;;;9.98;;
31126;SDS011;17775;57.948;12.514;2024-03-02T07:25:24;20.55;;;11.32;;
31126;SDS011;17775;57.948;12.514;2024-03-02T07:27:54;18.77;;;9.93;;
31126;SDS011;17775;57.948;12.514;2024-03-02T07:30:20;25.33;;;13.35;;
31126;SDS011;17775;57.948;12.514;2024-03-02T07:32:49;19.10;;;10.73;;
31126;SDS011;17775;57.948;12.514;2024-03-02T07:35:16;17.13;;;9.50;;
31126;SDS011;17775;57.948;12.514;2024-03-02T07:37:42;13.57;;;7.90;;
31126;SDS011;17775;57.948;12.514;2024-03-02T07:40:09;10.55;;;6.80;;
31126;SDS011;17775;57.948;12.514;2024-03-02T07:42:38;9.55;;;6.32;;
31126;SDS011;17775;57.948;12.514;2024-03-02T07:45:08;13.90;;;8.38;;
31126;SDS011;17775;57.948;12.514;2024-03-02T07:47:34;12.40;;;7.05;;
31126;SDS011;17775;57.948;12.514;2024-03-02T07:50:01;9.18;;;5.50;;
31126;SDS011;17775;57.948;12.514;2024-03-02T07:52:28;13.38;;;8.23;;
31126;SDS011;17775;57.948;12.514;2024-03-02T07:54:55;13.52;;;7.32;;
31126;SDS011;17775;57.948;12.514;2024-03-02T07:57:21;14.48;;;8.50;;
31126;SDS011;17775;57.948;12.514;2024-03-02T07:59:48;20.27;;;11.18;;
31126;SDS011;17775;57.948;12.514;2024-03-02T08:02:15;18.08;;;10.73;;
31126;SDS011;17775;57.948;12.514;2024-03-02T08:04:41;15.65;;;9.45;;
31126;SDS011;17775;57.948;12.514;2024-03-02T08:07:08;13.60;;;8.32;;
31126;SDS011;17775;57.948;12.514;2024-03-02T08:09:35;15.00;;;9.23;;
31126;SDS011;17775;57.948;12.514;2024-03-02T08:12:02;14.27;;;7.53;;
31126;SDS011;17775;57.948;12.514;2024-03-02T08:14:28;11.65;;;6.95;;
31126;SDS011;17775;57.948;12.514;2024-03-02T08:16:55;9.50;;;6.25;;
31126;SDS011;17775;57.948;12.514;2024-03-02T08:19:21;7.78;;;5.28;;
31126;SDS011;17775;57.948;12.514;2024-03-02T08:21:47;9.35;;;6.82;;
31126;SDS011;17775;57.948;12.514;2024-03-02T08:24:14;8.88;;;5.95;;
31126;SDS011;17775;57.948;12.514;2024-03-02T08:26:40;11.18;;;6.28;;
31126;SDS011;17775;57.948;12.514;2024-03-02T08:29:07;9.15;;;6.10;;
31126;SDS011;17775;57.948;12.514;2024-03-02T08:31:33;9.13;;;5.85;;
31126;SDS011;17775;57.948;12.514;2024-03-02T08:34:01;7.90;;;4.78;;
31126;SDS011;17775;57.948;12.514;2024-03-02T08:36:28;6.53;;;4.75;;
31126;SDS011;17775;57.948;12.514;2024-03-02T08:38:54;6.88;;;4.75;;
31126;SDS011;17775;57.948;12.514;2024-03-02T08:41:21;5.95;;;4.00;;
31126;SDS011;17775;57.948;12.514;2024-03-02T08:43:47;5.88;;;4.00;;
31126;SDS011;17775;57.948;12.514;2024-03-02T08:46:14;5.50;;;3.35;;
31126;SDS011;17775;57.948;12.514;2024-03-02T08:48:40;4.65;;;3.30;;
31126;SDS011;17775;57.948;12.514;2024-03-02T08:51:07;3.80;;;2.60;;
31126;SDS011;17775;57.948;12.514;2024-03-02T08:53:34;5.80;;;3.83;;
31126;SDS011;17775;57.948;12.514;2024-03-02T08:56:01;8.23;;;4.75;;
31126;SDS011;17775;57.948;12.514;2024-03-02T08:58:28;5.60;;;3.85;;
31126;SDS011;17775;57.948;12.514;2024-03-02T09:00:55;6.78;;;4.50;;
31126;SDS011;17775;57.948;12.514;2024-03-02T09:03:21;8.88;;;5.15;;
31126;SDS011;17775;57.948;12.514;2024-03-02T09:05:48;9.98;;;6.05;;
31126;SDS011;17775;57.948;12.514;2024-03-02T09:08:14;8.13;;;5.53;;
31126;SDS011;17775;57.948;12.514;2024-03-02T09:10:41;7.32;;;4.90;;
31126;SDS011;17775;57.948;12.514;2024-03-02T09:13:07;6.95;;;4.30;;
31126;SDS011;17775;57.948;12.514;2024-03-02T09:15:34;5.95;;;4.15;;
31126;SDS011;17775;57.948;12.514;2024-03-02T09:18:04;10.40;;;6.53;;
31126;SDS011;17775;57.948;12.514;2024-03-02T09:20:30;7.10;;;4.65;;
31126;SDS011;17775;57.948;12.514;2024-03-02T09:22:57;6.35;;;4.63;;
31126;SDS011;17775;57.948;12.514;2024-03-02T09:25:28;11.02;;;6.63;;
31126;SDS011;17775;57.948;12.514;2024-03-02T09:27:55;13.38;;;7.75;;
31126;SDS011;17775;57.948;12.514;2024-03-02T09:30:21;9.98;;;6.47;;
31126;SDS011;17775;57.948;12.514;2024-03-02T09:32:48;11.25;;;6.28;;
31126;SDS011;17775;57.948;12.514;2024-03-02T09:35:15;13.50;;;7.85;;
31126;SDS011;17775;57.948;12.514;2024-03-02T09:37:42;9.80;;;6.28;;
31126;SDS011;17775;57.948;12.514;2024-03-02T09:40:09;8.50;;;5.60;;
31126;SDS011;17775;57.948;12.514;2024-03-02T09:42:35;7.65;;;4.80;;
31126;SDS011;17775;57.948;12.514;2024-03-02T09:45:11;8.82;;;5.28;;
31126;SDS011;17775;57.948;12.514;2024-03-02T09:47:38;6.25;;;4.57;;
31126;SDS011;17775;57.948;12.514;2024-03-02T09:50:05;7.25;;;4.80;;
31126;SDS011;17775;57.948;12.514;2024-03-02T09:52:31;7.00;;;4.70;;
31126;SDS011;17775;57.948;12.514;2024-03-02T09:54:58;6.68;;;4.38;;
31126;SDS011;17775;57.948;12.514;2024-03-02T09:57:28;11.23;;;6.45;;
31126;SDS011;17775;57.948;12.514;2024-03-02T09:59:54;8.07;;;5.00;;
31126;SDS011;17775;57.948;12.514;2024-03-02T10:02:21;9.07;;;5.47;;
31126;SDS011;17775;57.948;12.514;2024-03-02T10:04:48;7.47;;;5.30;;
31126;SDS011;17775;57.948;12.514;2024-03-02T10:07:18;7.03;;;5.38;;
31126;SDS011;17775;57.948;12.514;2024-03-02T10:09:45;8.77;;;5.80;;
31126;SDS011;17775;57.948;12.514;2024-03-02T10:12:13;8.50;;;6.10;;
31126;SDS011;17775;57.948;12.514;2024-03-02T10:14:40;8.73;;;6.10;;
31126;SDS011;17775;57.948;12.514;2024-03-02T10:17:08;7.72;;;5.78;;
31126;SDS011;17775;57.948;12.514;2024-03-02T10:19:35;6.45;;;4.47;;
31126;SDS011;17775;57.948;12.514;2024-03-02T10:22:04;8.23;;;5.47;;
31126;SDS011;17775;57.948;12.514;2024-03-02T10:24:50;7.05;;;4.75;;
31126;SDS011;17775;57.948;12.514;2024-03-02T10:27:23;5.97;;;4.20;;
31126;SDS011;17775;57.948;12.514;2024-03-02T10:29:50;8.95;;;5.78;;
31126;SDS011;17775;57.948;12.514;2024-03-02T10:32:16;7.45;;;5.00;;
31126;SDS011;17775;57.948;12.514;2024-03-02T10:34:44;6.68;;;4.32;;
31126;SDS011;17775;57.948;12.514;2024-03-02T11:19:16;6.30;;;4.50;;
31126;SDS011;17775;57.948;12.514;2024-03-02T11:24:32;5.63;;;3.95;;
31126;SDS011;17775;57.948;12.514;2024-03-02T11:27:04;4.97;;;3.85;;
31126;SDS011;17775;57.948;12.514;2024-03-02T11:32:14;3.40;;;2.70;;
31126;SDS011;17775;57.948;12.514;2024-03-02T11:34:42;4.07;;;2.80;;
31126;SDS011;17775;57.948;12.514;2024-03-02T11:37:18;5.05;;;3.45;;
31126;SDS011;17775;57.948;12.514;2024-03-02T11:39:47;4.50;;;3.25;;
31126;SDS011;17775;57.948;12.514;2024-03-02T11:42:15;4.18;;;2.78;;
31126;SDS011;17775;57.948;12.514;2024-03-02T11:44:42;4.40;;;3.08;;
31126;SDS011;17775;57.948;12.514;2024-03-02T11:47:10;4.68;;;2.72;;
31126;SDS011;17775;57.948;12.514;2024-03-02T11:49:41;4.32;;;2.80;;
31126;SDS011;17775;57.948;12.514;2024-03-02T11:52:08;3.35;;;2.58;;
31126;SDS011;17775;57.948;12.514;2024-03-02T11:54:39;4.57;;;3.47;;
31126;SDS011;17775;57.948;12.514;2024-03-02T11:57:09;4.55;;;3.10;;
31126;SDS011;17775;57.948;12.514;2024-03-02T11:59:35;3.85;;;3.20;;
31126;SDS011;17775;57.948;12.514;2024-03-02T12:02:02;4.28;;;2.95;;
31126;SDS011;17775;57.948;12.514;2024-03-02T12:04:29;3.15;;;2.05;;
31126;SDS011;17775;57.948;12.514;2024-03-02T12:06:56;3.78;;;2.58;;
31126;SDS011;17775;57.948;12.514;2024-03-02T12:09:26;2.65;;;2.30;;
31126;SDS011;17775;57.948;12.514;2024-03-02T12:12:06;2.70;;;2.10;;
31126;SDS011;17775;57.948;12.514;2024-03-02T12:14:33;2.45;;;1.77;;
31126;SDS011;17775;57.948;12.514;2024-03-02T12:16:59;2.20;;;1.77;;
31126;SDS011;17775;57.948;12.514;2024-03-02T12:19:26;2.28;;;1.63;;
31126;SDS011;17775;57.948;12.514;2024-03-02T12:21:53;2.53;;;1.88;;
31126;SDS011;17775;57.948;12.514;2024-03-02T12:24:21;3.97;;;2.72;;
31126;SDS011;17775;57.948;12.514;2024-03-02T12:26:49;3.00;;;2.30;;
31126;SDS011;17775;57.948;12.514;2024-03-02T12:29:16;3.00;;;1.98;;
31126;SDS011;17775;57.948;12.514;2024-03-02T12:31:42;2.60;;;1.98;;
31126;SDS011;17775;57.948;12.514;2024-03-02T12:34:12;2.45;;;1.70;;
31126;SDS011;17775;57.948;12.514;2024-03-02T12:36:42;2.17;;;1.83;;
31126;SDS011;17775;57.948;12.514;2024-03-02T12:39:26;2.28;;;1.70;;
31126;SDS011;17775;57.948;12.514;2024-03-02T12:41:53;3.00;;;2.00;;
31126;SDS011;17775;57.948;12.514;2024-03-02T12:44:20;2.80;;;2.20;;
31126;SDS011;17775;57.948;12.514;2024-03-02T12:46:47;2.25;;;1.75;;
31126;SDS011;17775;57.948;12.514;2024-03-02T12:49:14;1.80;;;1.40;;
31126;SDS011;17775;57.948;12.514;2024-03-02T12:51:47;2.30;;;1.80;;
31126;SDS011;17775;57.948;12.514;2024-03-02T12:54:18;2.17;;;1.85;;
31126;SDS011;17775;57.948;12.514;2024-03-02T12:56:48;2.17;;;1.67;;
31126;SDS011;17775;57.948;12.514;2024-03-02T12:59:18;2.35;;;1.77;;
31126;SDS011;17775;57.948;12.514;2024-03-02T13:01:53;2.17;;;1.52;;
31126;SDS011;17775;57.948;12.514;2024-03-02T13:04:24;1.45;;;1.23;;
31126;SDS011;17775;57.948;12.514;2024-03-02T13:06:51;1.90;;;1.35;;
31126;SDS011;17775;57.948;12.514;2024-03-02T13:09:18;1.58;;;1.38;;
31126;SDS011;17775;57.948;12.514;2024-03-02T13:11:45;1.33;;;1.10;;
31126;SDS011;17775;57.948;12.514;2024-03-02T13:14:11;1.67;;;1.25;;
31126;SDS011;17775;57.948;12.514;2024-03-02T13:16:38;1.63;;;1.15;;
31126;SDS011;17775;57.948;12.514;2024-03-02T13:19:12;1.80;;;1.30;;
31126;SDS011;17775;57.948;12.514;2024-03-02T13:21:39;2.10;;;1.55;;
31126;SDS011;17775;57.948;12.514;2024-03-02T13:24:06;1.65;;;1.38;;
31126;SDS011;17775;57.948;12.514;2024-03-02T13:26:32;1.80;;;1.30;;
31126;SDS011;17775;57.948;12.514;2024-03-02T13:29:01;1.77;;;1.20;;
31126;SDS011;17775;57.948;12.514;2024-03-02T13:31:28;1.58;;;1.20;;
31126;SDS011;17775;57.948;12.514;2024-03-02T13:33:54;1.40;;;0.98;;
31126;SDS011;17775;57.948;12.514;2024-03-02T13:36:21;1.00;;;0.88;;
31126;SDS011;17775;57.948;12.514;2024-03-02T13:38:47;1.92;;;1.55;;
31126;SDS011;17775;57.948;12.514;2024-03-02T13:41:14;2.35;;;1.88;;
31126;SDS011;17775;57.948;12.514;2024-03-02T13:43:40;2.05;;;1.20;;
31126;SDS011;17775;57.948;12.514;2024-03-02T13:46:07;1.83;;;1.40;;
31126;SDS011;17775;57.948;12.514;2024-03-02T13:48:33;1.13;;;1.00;;
31126;SDS011;17775;57.948;12.514;2024-03-02T13:51:00;1.33;;;1.00;;
31126;SDS011;17775;57.948;12.514;2024-03-02T13:53:26;2.00;;;1.10;;
31126;SDS011;17775;57.948;12.514;2024-03-02T13:55:53;1.30;;;0.95;;
31126;SDS011;17775;57.948;12.514;2024-03-02T13:58:20;2.67;;;1.88;;
31126;SDS011;17775;57.948;12.514;2024-03-02T14:00:47;3.10;;;2.10;;
31126;SDS011;17775;57.948;12.514;2024-03-02T14:03:13;1.77;;;1.50;;
31126;SDS011;17775;57.948;12.514;2024-03-02T14:05:40;2.15;;;1.50;;
31126;SDS011;17775;57.948;12.514;2024-03-02T14:08:07;1.73;;;1.30;;
31126;SDS011;17775;57.948;12.514;2024-03-02T14:10:36;2.15;;;1.52;;
31126;SDS011;17775;57.948;12.514;2024-03-02T14:13:03;2.45;;;2.03;;
31126;SDS011;17775;57.948;12.514;2024-03-02T14:15:29;2.75;;;1.90;;
31126;SDS011;17775;57.948;12.514;2024-03-02T14:17:57;2.17;;;1.63;;
31126;SDS011;17775;57.948;12.514;2024-03-02T14:20:24;1.60;;;1.23;;
31126;SDS011;17775;57.948;12.514;2024-03-02T14:22:50;1.90;;;1.55;;
31126;SDS011;17775;57.948;12.514;2024-03-02T14:25:17;2.13;;;1.65;;
31126;SDS011;17775;57.948;12.514;2024-03-02T14:27:43;1.60;;;1.30;;
31126;SDS011;17775;57.948;12.514;2024-03-02T14:30:15;1.20;;;1.00;;
31126;SDS011;17775;57.948;12.514;2024-03-02T14:32:41;1.95;;;1.40;;
31126;SDS011;17775;57.948;12.514;2024-03-02T14:35:08;1.42;;;1.10;;
31126;SDS011;17775;57.948;12.514;2024-03-02T14:37:37;1.60;;;1.23;;
31126;SDS011;17775;57.948;12.514;2024-03-02T14:40:04;1.92;;;1.35;;
31126;SDS011;17775;57.948;12.514;2024-03-02T14:42:35;1.75;;;1.40;;
31126;SDS011;17775;57.948;12.514;2024-03-02T14:45:02;1.50;;;1.30;;
31126;SDS011;17775;57.948;12.514;2024-03-02T14:47:31;1.70;;;1.33;;
31126;SDS011;17775;57.948;12.514;2024-03-02T14:49:58;2.05;;;1.40;;
31126;SDS011;17775;57.948;12.514;2024-03-02T14:52:24;1.40;;;1.10;;
31126;SDS011;17775;57.948;12.514;2024-03-02T14:54:50;1.58;;;1.20;;
31126;SDS011;17775;57.948;12.514;2024-03-02T14:57:17;1.60;;;1.20;;
31126;SDS011;17775;57.948;12.514;2024-03-02T14:59:44;1.50;;;1.10;;
31126;SDS011;17775;57.948;12.514;2024-03-02T15:02:10;1.40;;;1.10;;
31126;SDS011;17775;57.948;12.514;2024-03-02T15:04:37;1.10;;;0.90;;
31126;SDS011;17775;57.948;12.514;2024-03-02T15:07:03;1.17;;;0.90;;
31126;SDS011;17775;57.948;12.514;2024-03-02T15:09:30;1.42;;;1.02;;
31126;SDS011;17775;57.948;12.514;2024-03-02T15:11:57;1.10;;;0.98;;
31126;SDS011;17775;57.948;12.514;2024-03-02T15:14:23;1.25;;;0.90;;
31126;SDS011;17775;57.948;12.514;2024-03-02T15:16:49;1.10;;;0.90;;
31126;SDS011;17775;57.948;12.514;2024-03-02T15:19:16;3.30;;;2.03;;
31126;SDS011;17775;57.948;12.514;2024-03-02T15:21:43;2.08;;;1.60;;
31126;SDS011;17775;57.948;12.514;2024-03-02T15:24:09;1.95;;;1.38;;
31126;SDS011;17775;57.948;12.514;2024-03-02T15:26:36;2.38;;;1.42;;
31126;SDS011;17775;57.948;12.514;2024-03-02T15:29:03;1.58;;;1.10;;
31126;SDS011;17775;57.948;12.514;2024-03-02T15:31:29;1.63;;;1.20;;
31126;SDS011;17775;57.948;12.514;2024-03-02T15:33:56;0.95;;;0.88;;
31126;SDS011;17775;57.948;12.514;2024-03-02T15:36:23;1.70;;;1.30;;
31126;SDS011;17775;57.948;12.514;2024-03-02T15:38:50;1.35;;;1.08;;
31126;SDS011;17775;57.948;12.514;2024-03-02T15:41:17;2.20;;;1.52;;
31126;SDS011;17775;57.948;12.514;2024-03-02T15:43:43;1.52;;;1.20;;
31126;SDS011;17775;57.948;12.514;2024-03-02T15:46:10;1.58;;;1.17;;
31126;SDS011;17775;57.948;12.514;2024-03-02T15:48:37;2.20;;;1.40;;
31126;SDS011;17775;57.948;12.514;2024-03-02T15:51:03;1.50;;;1.08;;
31126;SDS011;17775;57.948;12.514;2024-03-02T15:53:32;2.35;;;1.60;;
31126;SDS011;17775;57.948;12.514;2024-03-02T15:56:01;2.40;;;1.65;;
31126;SDS011;17775;57.948;12.514;2024-03-02T15:58:29;2.50;;;1.70;;
31126;SDS011;17775;57.948;12.514;2024-03-02T16:00:56;2.63;;;1.70;;
31126;SDS011;17775;57.948;12.514;2024-03-02T16:03:24;2.20;;;1.70;;
31126;SDS011;17775;57.948;12.514;2024-03-02T16:05:50;2.20;;;1.52;;
31126;SDS011;17775;57.948;12.514;2024-03-02T16:08:17;1.45;;;1.13;;
31126;SDS011;17775;57.948;12.514;2024-03-02T16:10:43;1.45;;;1.05;;
31126;SDS011;17775;57.948;12.514;2024-03-02T16:13:10;1.20;;;0.95;;
31126;SDS011;17775;57.948;12.514;2024-03-02T16:15:36;1.55;;;0.90;;
31126;SDS011;17775;57.948;12.514;2024-03-02T16:18:05;1.05;;;0.95;;
31126;SDS011;17775;57.948;12.514;2024-03-02T16:20:32;1.45;;;1.10;;
31126;SDS011;17775;57.948;12.514;2024-03-02T16:22:59;1.35;;;1.00;;
31126;SDS011;17775;57.948;12.514;2024-03-02T16:25:26;1.20;;;1.08;;
31126;SDS011;17775;57.948;12.514;2024-03-02T16:27:53;1.50;;;1.10;;
31126;SDS011;17775;57.948;12.514;2024-03-02T16:30:20;2.10;;;1.30;;
31126;SDS011;17775;57.948;12.514;2024-03-02T16:32:47;1.98;;;1.38;;
31126;SDS011;17775;57.948;12.514;2024-03-02T16:35:14;1.60;;;1.23;;
31126;SDS011;17775;57.948;12.514;2024-03-02T16:37:41;1.40;;;1.17;;
31126;SDS011;17775;57.948;12.514;2024-03-02T16:40:08;1.67;;;1.17;;
31126;SDS011;17775;57.948;12.514;2024-03-02T16:42:35;1.23;;;1.02;;
31126;SDS011;17775;57.948;12.514;2024-03-02T16:45:02;2.25;;;1.60;;
31126;SDS011;17775;57.948;12.514;2024-03-02T16:47:28;2.40;;;1.35;;
31126;SDS011;17775;57.948;12.514;2024-03-02T16:49:54;2.60;;;1.90;;
31126;SDS011;17775;57.948;12.514;2024-03-02T16:52:25;2.30;;;1.75;;
31126;SDS011;17775;57.948;12.514;2024-03-02T16:54:54;5.60;;;4.35;;
31126;SDS011;17775;57.948;12.514;2024-03-02T16:57:22;4.93;;;3.63;;
31126;SDS011;17775;57.948;12.514;2024-03-02T16:59:50;4.68;;;3.28;;
31126;SDS011;17775;57.948;12.514;2024-03-02T17:05:45;3.83;;;2.88;;
31126;SDS011;17775;57.948;12.514;2024-03-02T17:08:13;2.58;;;2.05;;
31126;SDS011;17775;57.948;12.514;2024-03-02T17:10:40;2.90;;;2.10;;
31126;SDS011;17775;57.948;12.514;2024-03-02T17:13:07;3.50;;;2.28;;
31126;SDS011;17775;57.948;12.514;2024-03-02T17:15:33;2.28;;;1.70;;
31126;SDS011;17775;57.948;12.514;2024-03-02T17:18:00;2.67;;;2.03;;
31126;SDS011;17775;57.948;12.514;2024-03-02T17:20:27;2.53;;;1.80;;
31126;SDS011;17775;57.948;12.514;2024-03-02T17:22:54;3.22;;;2.45;;
31126;SDS011;17775;57.948;12.514;2024-03-02T17:25:20;3.03;;;2.33;;
31126;SDS011;17775;57.948;12.514;2024-03-02T17:27:47;2.53;;;1.85;;
31126;SDS011;17775;57.948;12.514;2024-03-02T17:30:17;2.67;;;1.80;;
31126;SDS011;17775;57.948;12.514;2024-03-02T17:32:46;2.58;;;1.92;;
31126;SDS011;17775;57.948;12.514;2024-03-02T17:35:13;2.45;;;1.58;;
31126;SDS011;17775;57.948;12.514;2024-03-02T17:37:39;2.72;;;1.75;;
31126;SDS011;17775;57.948;12.514;2024-03-02T17:40:06;2.42;;;1.63;;
31126;SDS011;17775;57.948;12.514;2024-03-02T17:42:33;1.50;;;1.10;;
31126;SDS011;17775;57.948;12.514;2024-03-02T17:44:59;2.03;;;1.50;;
31126;SDS011;17775;57.948;12.514;2024-03-02T17:47:26;1.98;;;1.50;;
31126;SDS011;17775;57.948;12.514;2024-03-02T17:49:52;2.03;;;1.45;;
31126;SDS011;17775;57.948;12.514;2024-03-02T18:23:23;3.88;;;2.78;;
31126;SDS011;17775;57.948;12.514;2024-03-02T18:35:30;2.88;;;1.88;;
31126;SDS011;17775;57.948;12.514;2024-03-02T18:37:56;3.83;;;2.40;;
31126;SDS011;17775;57.948;12.514;2024-03-02T18:40:23;3.58;;;2.80;;
31126;SDS011;17775;57.948;12.514;2024-03-02T18:42:49;2.78;;;2.20;;
31126;SDS011;17775;57.948;12.514;2024-03-02T18:45:16;3.22;;;2.17;;
31126;SDS011;17775;57.948;12.514;2024-03-02T18:47:45;4.78;;;3.47;;
31126;SDS011;17775;57.948;12.514;2024-03-02T18:50:12;3.70;;;2.95;;
31126;SDS011;17775;57.948;12.514;2024-03-02T18:52:39;5.65;;;3.83;;
31126;SDS011;17775;57.948;12.514;2024-03-02T18:55:05;4.47;;;3.17;;
31126;SDS011;17775;57.948;12.514;2024-03-02T18:57:34;3.58;;;2.47;;
31126;SDS011;17775;57.948;12.514;2024-03-02T19:00:01;3.17;;;2.30;;
31126;SDS011;17775;57.948;12.514;2024-03-02T19:02:30;3.03;;;2.10;;
31126;SDS011;17775;57.948;12.514;2024-03-02T19:04:56;3.13;;;2.17;;
31126;SDS011;17775;57.948;12.514;2024-03-02T19:07:22;2.63;;;1.92;;
31126;SDS011;17775;57.948;12.514;2024-03-02T19:09:49;2.40;;;1.75;;
31126;SDS011;17775;57.948;12.514;2024-03-02T19:12:15;2.30;;;1.80;;
31126;SDS011;17775;57.948;12.514;2024-03-02T19:14:42;2.30;;;1.75;;
31126;SDS011;17775;57.948;12.514;2024-03-02T19:17:11;2.28;;;1.42;;
31126;SDS011;17775;57.948;12.514;2024-03-02T19:19:37;1.85;;;1.30;;
31126;SDS011;17775;57.948;12.514;2024-03-02T19:22:05;1.70;;;1.20;;
31126;SDS011;17775;57.948;12.514;2024-03-02T19:24:37;1.85;;;1.30;;
31126;SDS011;17775;57.948;12.514;2024-03-02T19:27:04;1.63;;;1.17;;
31126;SDS011;17775;57.948;12.514;2024-03-02T19:29:31;1.50;;;1.20;;
31126;SDS011;17775;57.948;12.514;2024-03-02T19:31:57;2.17;;;1.40;;
31126;SDS011;17775;57.948;12.514;2024-03-02T19:34:27;1.95;;;1.48;;
31126;SDS011;17775;57.948;12.514;2024-03-02T19:36:54;1.60;;;1.25;;
31126;SDS011;17775;57.948;12.514;2024-03-02T19:39:26;1.92;;;1.25;;
31126;SDS011;17775;57.948;12.514;2024-03-02T19:41:53;1.33;;;1.05;;
31126;SDS011;17775;57.948;12.514;2024-03-02T19:44:20;2.47;;;1.60;;
31126;SDS011;17775;57.948;12.514;2024-03-02T19:46:48;2.03;;;1.30;;
31126;SDS011;17775;57.948;12.514;2024-03-02T19:49:15;2.03;;;1.45;;
31126;SDS011;17775;57.948;12.514;2024-03-02T19:51:41;2.90;;;1.67;;
31126;SDS011;17775;57.948;12.514;2024-03-02T19:54:12;2.13;;;1.70;;
31126;SDS011;17775;57.948;12.514;2024-03-02T19:56:39;2.35;;;1.60;;
31126;SDS011;17775;57.948;12.514;2024-03-02T19:59:06;2.03;;;1.50;;
31126;SDS011;17775;57.948;12.514;2024-03-02T20:01:36;2.00;;;1.45;;
31126;SDS011;17775;57.948;12.514;2024-03-02T20:04:03;1.80;;;1.23;;
31126;SDS011;17775;57.948;12.514;2024-03-02T20:06:29;2.00;;;1.52;;
31126;SDS011;17775;57.948;12.514;2024-03-02T20:08:56;1.45;;;1.10;;
31126;SDS011;17775;57.948;12.514;2024-03-02T20:11:23;1.70;;;1.20;;
31126;SDS011;17775;57.948;12.514;2024-03-02T20:13:49;2.63;;;1.42;;
31126;SDS011;17775;57.948;12.514;2024-03-02T20:16:15;1.90;;;1.40;;
31126;SDS011;17775;57.948;12.514;2024-03-02T20:18:47;1.92;;;1.30;;
31126;SDS011;17775;57.948;12.514;2024-03-02T20:21:14;1.70;;;1.10;;
31126;SDS011;17775;57.948;12.514;2024-03-02T20:23:40;1.77;;;1.17;;
31126;SDS011;17775;57.948;12.514;2024-03-02T20:26:07;1.25;;;0.95;;
31126;SDS011;17775;57.948;12.514;2024-03-02T20:28:33;1.42;;;1.10;;
31126;SDS011;17775;57.948;12.514;2024-03-02T20:31:00;2.45;;;1.73;;
31126;SDS011;17775;57.948;12.514;2024-03-02T20:33:27;2.10;;;1.48;;
31126;SDS011;17775;57.948;12.514;2024-03-02T20:35:53;2.70;;;1.67;;
31126;SDS011;17775;57.948;12.514;2024-03-02T20:38:20;2.20;;;1.50;;
31126;SDS011;17775;57.948;12.514;2024-03-02T20:40:46;1.85;;;1.20;;
31126;SDS011;17775;57.948;12.514;2024-03-02T20:43:17;1.85;;;1.35;;
31126;SDS011;17775;57.948;12.514;2024-03-02T20:45:43;2.17;;;1.40;;
31126;SDS011;17775;57.948;12.514;2024-03-02T20:48:10;1.73;;;1.15;;
31126;SDS011;17775;57.948;12.514;2024-03-02T20:50:36;1.50;;;1.08;;
31126;SDS011;17775;57.948;12.514;2024-03-02T20:53:03;1.52;;;1.10;;
31126;SDS011;17775;57.948;12.514;2024-03-02T20:55:34;1.02;;;0.82;;
31126;SDS011;17775;57.948;12.514;2024-03-02T21:00:30;2.83;;;1.85;;
31126;SDS011;17775;57.948;12.514;2024-03-02T21:02:56;2.42;;;1.70;;
31126;SDS011;17775;57.948;12.514;2024-03-02T21:05:23;2.13;;;1.45;;
31126;SDS011;17775;57.948;12.514;2024-03-02T21:07:50;3.20;;;1.48;;
31126;SDS011;17775;57.948;12.514;2024-03-02T21:10:17;1.98;;;1.30;;
31126;SDS011;17775;57.948;12.514;2024-03-02T21:12:43;2.95;;;1.55;;
31126;SDS011;17775;57.948;12.514;2024-03-02T21:15:10;1.90;;;1.20;;
31126;SDS011;17775;57.948;12.514;2024-03-02T21:17:36;1.67;;;1.30;;
31126;SDS011;17775;57.948;12.514;2024-03-02T21:20:03;2.67;;;1.60;;
31126;SDS011;17775;57.948;12.514;2024-03-02T21:22:32;2.90;;;1.67;;
31126;SDS011;17775;57.948;12.514;2024-03-02T21:24:59;1.83;;;1.25;;
31126;SDS011;17775;57.948;12.514;2024-03-02T21:27:27;1.60;;;1.10;;
31126;SDS011;17775;57.948;12.514;2024-03-02T21:29:54;1.55;;;1.10;;
31126;SDS011;17775;57.948;12.514;2024-03-02T21:32:20;1.58;;;1.10;;
31126;SDS011;17775;57.948;12.514;2024-03-02T21:34:47;1.75;;;1.38;;
31126;SDS011;17775;57.948;12.514;2024-03-02T21:37:13;1.48;;;1.15;;
31126;SDS011;17775;57.948;12.514;2024-03-02T21:39:40;2.08;;;1.33;;
31126;SDS011;17775;57.948;12.514;2024-03-02T21:42:12;1.58;;;1.25;;
31126;SDS011;17775;57.948;12.514;2024-03-02T21:44:39;1.52;;;1.20;;
31126;SDS011;17775;57.948;12.514;2024-03-02T21:47:05;1.92;;;1.20;;
31126;SDS011;17775;57.948;12.514;2024-03-02T21:49:32;1.77;;;1.10;;
31126;SDS011;17775;57.948;12.514;2024-03-02T21:51:59;2.17;;;1.17;;
31126;SDS011;17775;57.948;12.514;2024-03-02T21:54:27;1.65;;;1.13;;
31126;SDS011;17775;57.948;12.514;2024-03-02T21:56:54;2.35;;;1.80;;
31126;SDS011;17775;57.948;12.514;2024-03-02T21:59:20;4.13;;;2.42;;
31126;SDS011;17775;57.948;12.514;2024-03-02T22:01:46;2.20;;;1.58;;
31126;SDS011;17775;57.948;12.514;2024-03-02T22:04:13;2.58;;;1.70;;
31126;SDS011;17775;57.948;12.514;2024-03-02T22:06:40;2.42;;;1.50;;
31126;SDS011;17775;57.948;12.514;2024-03-02T22:09:06;4.72;;;2.80;;
31126;SDS011;17775;57.948;12.514;2024-03-02T22:11:32;4.55;;;2.83;;
31126;SDS011;17775;57.948;12.514;2024-03-02T22:13:59;4.18;;;2.70;;
31126;SDS011;17775;57.948;12.514;2024-03-02T22:16:25;3.55;;;2.20;;
31126;SDS011;17775;57.948;12.514;2024-03-02T22:18:53;3.53;;;2.40;;
31126;SDS011;17775;57.948;12.514;2024-03-02T22:21:21;3.10;;;2.25;;
31126;SDS011;17775;57.948;12.514;2024-03-02T22:23:47;3.75;;;2.38;;
31126;SDS011;17775;57.948;12.514;2024-03-02T22:26:14;2.50;;;1.70;;
31126;SDS011;17775;57.948;12.514;2024-03-02T22:28:40;3.00;;;2.05;;
31126;SDS011;17775;57.948;12.514;2024-03-02T22:31:08;2.50;;;1.77;;
31126;SDS011;17775;57.948;12.514;2024-03-02T22:33:35;2.40;;;1.65;;
31126;SDS011;17775;57.948;12.514;2024-03-02T22:36:01;6.03;;;2.88;;
31126;SDS011;17775;57.948;12.514;2024-03-02T22:38:28;3.72;;;2.47;;
31126;SDS011;17775;57.948;12.514;2024-03-02T22:40:54;4.05;;;2.10;;
31126;SDS011;17775;57.948;12.514;2024-03-02T22:43:21;2.78;;;1.90;;
31126;SDS011;17775;57.948;12.514;2024-03-02T22:45:48;2.63;;;1.75;;
31126;SDS011;17775;57.948;12.514;2024-03-02T22:48:15;2.63;;;2.03;;
31126;SDS011;17775;57.948;12.514;2024-03-02T22:50:41;2.10;;;1.40;;